AAL511 KAUS-KDFW
Flight info
| Callsign | AAL511 |
|---|---|
| Flight time | 0h 43m |
| Altitude | 28000 |
| Route | ELOEL3 FORSS GUTZZ BOOVE7 |
| Aircraft | B738/M-SDE2E3FGHIRWXY/LB1 |
Departure
| Time | 2026-05-08 00:36 |
|---|---|
| Airport | Austin Bergstrom International Airport (KAUS) |
Arrival
| Time | 2026-05-08 01:19 |
|---|---|
| Airport | Dallas Fort Worth International Airport (KDFW) |
| Time | Latitude | Longitude | Altitude | Speed | Heading |
|---|---|---|---|---|---|
| 2026-05-07 23:55 | 30.20127 | -97.66721 | 513 ft | 0 kts | 8° |
| 2026-05-08 00:23 | 30.20112 | -97.66724 | 513 ft | 4 kts | 9° |
| 2026-05-08 00:23 | 30.20087 | -97.66733 | 513 ft | 4 kts | 36° |
| 2026-05-08 00:23 | 30.20072 | -97.66755 | 513 ft | 4 kts | 79° |
| 2026-05-08 00:23 | 30.20071 | -97.66771 | 513 ft | 1 kts | 97° |
| 2026-05-08 00:24 | 30.20072 | -97.66773 | 513 ft | 1 kts | 97° |
| 2026-05-08 00:28 | 30.20071 | -97.66765 | 513 ft | 5 kts | 97° |
| 2026-05-08 00:28 | 30.20008 | -97.66703 | 511 ft | 18 kts | 160° |
| 2026-05-08 00:28 | 30.19911 | -97.66636 | 508 ft | 16 kts | 98° |
| 2026-05-08 00:29 | 30.19912 | -97.66511 | 506 ft | 15 kts | 88° |
| 2026-05-08 00:29 | 30.19913 | -97.66394 | 504 ft | 14 kts | 90° |
| 2026-05-08 00:29 | 30.19914 | -97.66278 | 501 ft | 15 kts | 89° |
| 2026-05-08 00:29 | 30.19917 | -97.66191 | 498 ft | 11 kts | 86° |
| 2026-05-08 00:30 | 30.19920 | -97.66092 | 495 ft | 13 kts | 88° |
| 2026-05-08 00:30 | 30.19894 | -97.65993 | 493 ft | 13 kts | 149° |
| 2026-05-08 00:30 | 30.19804 | -97.65986 | 494 ft | 13 kts | 180° |
| 2026-05-08 00:30 | 30.19716 | -97.65985 | 494 ft | 13 kts | 179° |
| 2026-05-08 00:31 | 30.19630 | -97.65984 | 489 ft | 12 kts | 179° |
| 2026-05-08 00:31 | 30.19546 | -97.65982 | 485 ft | 12 kts | 178° |
| 2026-05-08 00:31 | 30.19464 | -97.65979 | 487 ft | 12 kts | 178° |
| 2026-05-08 00:31 | 30.19385 | -97.65975 | 494 ft | 11 kts | 177° |
| 2026-05-08 00:32 | 30.19284 | -97.65972 | 491 ft | 19 kts | 179° |
| 2026-05-08 00:32 | 30.19144 | -97.65969 | 491 ft | 21 kts | 179° |
| 2026-05-08 00:32 | 30.19008 | -97.65965 | 490 ft | 19 kts | 178° |
| 2026-05-08 00:32 | 30.18875 | -97.65961 | 491 ft | 19 kts | 179° |
| 2026-05-08 00:33 | 30.18744 | -97.65960 | 483 ft | 20 kts | 179° |
| 2026-05-08 00:33 | 30.18612 | -97.65955 | 483 ft | 17 kts | 178° |
| 2026-05-08 00:33 | 30.18499 | -97.65953 | 482 ft | 16 kts | 179° |
| 2026-05-08 00:33 | 30.18389 | -97.65949 | 478 ft | 16 kts | 178° |
| 2026-05-08 00:34 | 30.18274 | -97.65947 | 475 ft | 17 kts | 179° |
| 2026-05-08 00:34 | 30.18153 | -97.65943 | 477 ft | 17 kts | 179° |
| 2026-05-08 00:34 | 30.18035 | -97.65940 | 476 ft | 16 kts | 176° |
| 2026-05-08 00:34 | 30.17992 | -97.65883 | 477 ft | 10 kts | 92° |
| 2026-05-08 00:35 | 30.17993 | -97.65804 | 475 ft | 10 kts | 88° |
| 2026-05-08 00:35 | 30.18004 | -97.65733 | 474 ft | 7 kts | 32° |
| 2026-05-08 00:35 | 30.18050 | -97.65734 | 479 ft | 6 kts | 351° |
| 2026-05-08 00:35 | 30.18155 | -97.65739 | 475 ft | 45 kts | 1° |
| 2026-05-08 00:36 | 30.18748 | -97.65748 | 490 ft | 123 kts | 358° |
| 2026-05-08 00:36 | 30.19810 | -97.65782 | 597 ft | 177 kts | 358° |
| 2026-05-08 00:36 | 30.21109 | -97.65829 | 1317 ft | 190 kts | 2° |
| 2026-05-08 00:36 | 30.22396 | -97.65823 | 2498 ft | 180 kts | 1° |
| 2026-05-08 00:37 | 30.23691 | -97.65850 | 3319 ft | 198 kts | 1° |
| 2026-05-08 00:37 | 30.25177 | -97.65878 | 3579 ft | 229 kts | 1° |
| 2026-05-08 00:37 | 30.26811 | -97.65901 | 4002 ft | 245 kts | 1° |
| 2026-05-08 00:38 | 30.30380 | -97.65931 | 3990 ft | 266 kts | 1° |
| 2026-05-08 00:38 | 30.32234 | -97.65942 | 4001 ft | 269 kts | 1° |
| 2026-05-08 00:38 | 30.34106 | -97.65956 | 3999 ft | 268 kts | 1° |
| 2026-05-08 00:38 | 30.35970 | -97.65967 | 4017 ft | 267 kts | 1° |
| 2026-05-08 00:39 | 30.37825 | -97.65978 | 4011 ft | 267 kts | 1° |
| 2026-05-08 00:39 | 30.39684 | -97.65991 | 4007 ft | 267 kts | 359° |
| 2026-05-08 00:39 | 30.41481 | -97.66499 | 4030 ft | 268 kts | 337° |
| 2026-05-08 00:39 | 30.43130 | -97.67419 | 4021 ft | 269 kts | 335° |
| 2026-05-08 00:40 | 30.44834 | -97.68381 | 4025 ft | 270 kts | 335° |
| 2026-05-08 00:40 | 30.46542 | -97.69328 | 4111 ft | 275 kts | 336° |
| 2026-05-08 00:40 | 30.48275 | -97.70265 | 4878 ft | 277 kts | 336° |
| 2026-05-08 00:40 | 30.50055 | -97.71211 | 5902 ft | 282 kts | 336° |
| 2026-05-08 00:41 | 30.51873 | -97.72166 | 6729 ft | 291 kts | 336° |
| 2026-05-08 00:41 | 30.53734 | -97.73134 | 7662 ft | 294 kts | 336° |
| 2026-05-08 00:41 | 30.55608 | -97.74103 | 8613 ft | 296 kts | 336° |
| 2026-05-08 00:41 | 30.57502 | -97.75079 | 9484 ft | 300 kts | 336° |
| 2026-05-08 00:42 | 30.59415 | -97.76062 | 10322 ft | 305 kts | 335° |
| 2026-05-08 00:42 | 30.61397 | -97.77081 | 10650 ft | 328 kts | 334° |
| 2026-05-08 00:42 | 30.63558 | -97.78194 | 11006 ft | 347 kts | 333° |
| 2026-05-08 00:42 | 30.65773 | -97.79330 | 11886 ft | 346 kts | 333° |
| 2026-05-08 00:43 | 30.67963 | -97.80450 | 12870 ft | 344 kts | 331° |
| 2026-05-08 00:43 | 30.70165 | -97.81578 | 13632 ft | 349 kts | 331° |
| 2026-05-08 00:43 | 30.72404 | -97.82729 | 14284 ft | 356 kts | 330° |
| 2026-05-08 00:43 | 30.74682 | -97.83901 | 15000 ft | 360 kts | 330° |
| 2026-05-08 00:44 | 30.76986 | -97.85086 | 15692 ft | 364 kts | 330° |
| 2026-05-08 00:44 | 30.79314 | -97.86282 | 16380 ft | 368 kts | 330° |
| 2026-05-08 00:44 | 30.81673 | -97.87495 | 17039 ft | 373 kts | 330° |
| 2026-05-08 00:44 | 30.84060 | -97.88723 | 17681 ft | 377 kts | 330° |
| 2026-05-08 00:45 | 30.86470 | -97.89963 | 18352 ft | 380 kts | 329° |
| 2026-05-08 00:45 | 30.88864 | -97.91197 | 18982 ft | 383 kts | 329° |
| 2026-05-08 00:45 | 30.91306 | -97.92464 | 19644 ft | 385 kts | 328° |
| 2026-05-08 00:45 | 30.93714 | -97.93831 | 20301 ft | 385 kts | 326° |
| 2026-05-08 00:46 | 30.96106 | -97.95258 | 20944 ft | 387 kts | 326° |
| 2026-05-08 00:46 | 30.98506 | -97.96706 | 21536 ft | 390 kts | 326° |
| 2026-05-08 00:46 | 31.00925 | -97.98160 | 22107 ft | 393 kts | 326° |
| 2026-05-08 00:46 | 31.03361 | -97.99612 | 22696 ft | 394 kts | 326° |
| 2026-05-08 00:47 | 31.05816 | -98.01069 | 23038 ft | 398 kts | 326° |
| 2026-05-08 00:47 | 31.08287 | -98.02529 | 23055 ft | 397 kts | 326° |
| 2026-05-08 00:47 | 31.10750 | -98.03982 | 23069 ft | 397 kts | 326° |
| 2026-05-08 00:47 | 31.13214 | -98.05439 | 23070 ft | 397 kts | 326° |
| 2026-05-08 00:48 | 31.15647 | -98.06874 | 23073 ft | 398 kts | 327° |
| 2026-05-08 00:48 | 31.18232 | -98.08098 | 23062 ft | 406 kts | 336° |
| 2026-05-08 00:48 | 31.20997 | -98.08881 | 23070 ft | 410 kts | 341° |
| 2026-05-08 00:48 | 31.23797 | -98.09559 | 23065 ft | 412 kts | 341° |
| 2026-05-08 00:49 | 31.26603 | -98.10228 | 23068 ft | 412 kts | 341° |
| 2026-05-08 00:49 | 31.29414 | -98.10912 | 23063 ft | 412 kts | 341° |
| 2026-05-08 00:49 | 31.32222 | -98.11614 | 23180 ft | 416 kts | 341° |
| 2026-05-08 00:49 | 31.35062 | -98.12334 | 23698 ft | 417 kts | 341° |
| 2026-05-08 00:50 | 31.37877 | -98.13048 | 24054 ft | 412 kts | 340° |
| 2026-05-08 00:50 | 31.40643 | -98.13714 | 24057 ft | 412 kts | 345° |
| 2026-05-08 00:50 | 31.43533 | -98.13721 | 24077 ft | 421 kts | 359° |
| 2026-05-08 00:50 | 31.46450 | -98.13263 | 24075 ft | 425 kts | 1° |
| 2026-05-08 00:51 | 31.49379 | -98.12759 | 24080 ft | 426 kts | 1° |
| 2026-05-08 00:51 | 31.52311 | -98.12265 | 24078 ft | 426 kts | 0° |
| 2026-05-08 00:51 | 31.55247 | -98.11798 | 24071 ft | 425 kts | 0° |
| 2026-05-08 00:51 | 31.58184 | -98.11351 | 24069 ft | 424 kts | 0° |
| 2026-05-08 00:52 | 31.61102 | -98.10914 | 24071 ft | 423 kts | 360° |
| 2026-05-08 00:52 | 31.63982 | -98.10463 | 24064 ft | 424 kts | 3° |
| 2026-05-08 00:52 | 31.66816 | -98.09356 | 24060 ft | 439 kts | 21° |
| 2026-05-08 00:52 | 31.69464 | -98.07559 | 24074 ft | 440 kts | 25° |
| 2026-05-08 00:53 | 31.72084 | -98.05698 | 24067 ft | 440 kts | 25° |
| 2026-05-08 00:53 | 31.74702 | -98.03840 | 24063 ft | 439 kts | 25° |
| 2026-05-08 00:53 | 31.77323 | -98.02004 | 24059 ft | 435 kts | 24° |
| 2026-05-08 00:53 | 31.79894 | -98.00223 | 24051 ft | 425 kts | 24° |
| 2026-05-08 00:54 | 31.82398 | -97.98505 | 24057 ft | 420 kts | 23° |
| 2026-05-08 00:54 | 31.84924 | -97.96777 | 24070 ft | 421 kts | 23° |
| 2026-05-08 00:54 | 31.87452 | -97.95049 | 24054 ft | 420 kts | 23° |
| 2026-05-08 00:54 | 31.90006 | -97.93345 | 23617 ft | 421 kts | 22° |
| 2026-05-08 00:55 | 31.92549 | -97.91674 | 23297 ft | 417 kts | 22° |
| 2026-05-08 00:55 | 31.95070 | -97.90021 | 22969 ft | 413 kts | 22° |
| 2026-05-08 00:55 | 31.97573 | -97.88378 | 22651 ft | 411 kts | 22° |
| 2026-05-08 00:55 | 32.00066 | -97.86738 | 22334 ft | 410 kts | 23° |
| 2026-05-08 00:56 | 32.02552 | -97.85098 | 22009 ft | 409 kts | 23° |
| 2026-05-08 00:56 | 32.04993 | -97.83484 | 21699 ft | 408 kts | 23° |
| 2026-05-08 00:56 | 32.07463 | -97.81849 | 21380 ft | 406 kts | 23° |
| 2026-05-08 00:56 | 32.09921 | -97.80221 | 21065 ft | 405 kts | 23° |
| 2026-05-08 00:57 | 32.12377 | -97.78593 | 20741 ft | 404 kts | 24° |
| 2026-05-08 00:57 | 32.14825 | -97.76969 | 20417 ft | 403 kts | 24° |
| 2026-05-08 00:57 | 32.17247 | -97.75358 | 20083 ft | 395 kts | 24° |
| 2026-05-08 00:57 | 32.19615 | -97.73773 | 19779 ft | 391 kts | 24° |
| 2026-05-08 00:58 | 32.22006 | -97.72175 | 19491 ft | 397 kts | 24° |
| 2026-05-08 00:58 | 32.24420 | -97.70601 | 19174 ft | 395 kts | 22° |
| 2026-05-08 00:58 | 32.26818 | -97.69169 | 18872 ft | 390 kts | 21° |
| 2026-05-08 00:58 | 32.29247 | -97.67768 | 18568 ft | 387 kts | 20° |
| 2026-05-08 00:59 | 32.31656 | -97.66377 | 18261 ft | 385 kts | 21° |
| 2026-05-08 00:59 | 32.34052 | -97.64975 | 17954 ft | 383 kts | 21° |
| 2026-05-08 00:59 | 32.36431 | -97.63571 | 17644 ft | 382 kts | 21° |
| 2026-05-08 00:59 | 32.38748 | -97.62028 | 17332 ft | 386 kts | 34° |
| 2026-05-08 01:00 | 32.40720 | -97.59858 | 17067 ft | 387 kts | 41° |
| 2026-05-08 01:00 | 32.42614 | -97.57609 | 16752 ft | 386 kts | 41° |
| 2026-05-08 01:00 | 32.44491 | -97.55404 | 16466 ft | 385 kts | 41° |
| 2026-05-08 01:00 | 32.46411 | -97.53190 | 16155 ft | 385 kts | 40° |
| 2026-05-08 01:01 | 32.48331 | -97.50993 | 15858 ft | 384 kts | 40° |
| 2026-05-08 01:01 | 32.50252 | -97.48805 | 15560 ft | 382 kts | 40° |
| 2026-05-08 01:01 | 32.52165 | -97.46628 | 15260 ft | 380 kts | 40° |
| 2026-05-08 01:01 | 32.54065 | -97.44457 | 14971 ft | 379 kts | 40° |
| 2026-05-08 01:02 | 32.55959 | -97.42289 | 14685 ft | 377 kts | 40° |
| 2026-05-08 01:02 | 32.57839 | -97.40136 | 14394 ft | 373 kts | 40° |
| 2026-05-08 01:02 | 32.59686 | -97.38019 | 14105 ft | 367 kts | 40° |
| 2026-05-08 01:02 | 32.61484 | -97.35958 | 13815 ft | 362 kts | 40° |
| 2026-05-08 01:03 | 32.63179 | -97.34015 | 13580 ft | 355 kts | 40° |
| 2026-05-08 01:03 | 32.64943 | -97.31992 | 13299 ft | 351 kts | 39° |
| 2026-05-08 01:03 | 32.66682 | -97.30000 | 13021 ft | 346 kts | 40° |
| 2026-05-08 01:03 | 32.68391 | -97.28035 | 12868 ft | 337 kts | 39° |
| 2026-05-08 01:04 | 32.70057 | -97.26116 | 12712 ft | 329 kts | 39° |
| 2026-05-08 01:04 | 32.71680 | -97.24248 | 12567 ft | 321 kts | 39° |
| 2026-05-08 01:04 | 32.73266 | -97.22424 | 12424 ft | 314 kts | 39° |
| 2026-05-08 01:04 | 32.74794 | -97.20664 | 12284 ft | 306 kts | 39° |
| 2026-05-08 01:05 | 32.76303 | -97.18925 | 12150 ft | 300 kts | 39° |
| 2026-05-08 01:05 | 32.77878 | -97.17393 | 11979 ft | 284 kts | 19° |
| 2026-05-08 01:05 | 32.79686 | -97.16728 | 11786 ft | 264 kts | 356° |
| 2026-05-08 01:05 | 32.81494 | -97.16652 | 11555 ft | 258 kts | 352° |
| 2026-05-08 01:06 | 32.83283 | -97.16644 | 11302 ft | 256 kts | 352° |
| 2026-05-08 01:06 | 32.85059 | -97.16641 | 11053 ft | 254 kts | 353° |
| 2026-05-08 01:06 | 32.86822 | -97.16634 | 10803 ft | 253 kts | 353° |
| 2026-05-08 01:06 | 32.88576 | -97.16622 | 10564 ft | 251 kts | 354° |
| 2026-05-08 01:07 | 32.90300 | -97.16608 | 10322 ft | 250 kts | 354° |
| 2026-05-08 01:07 | 32.92035 | -97.16592 | 10079 ft | 249 kts | 355° |
| 2026-05-08 01:07 | 32.93750 | -97.16574 | 9835 ft | 247 kts | 355° |
| 2026-05-08 01:07 | 32.95459 | -97.16555 | 9695 ft | 242 kts | 356° |
| 2026-05-08 01:08 | 32.97133 | -97.16535 | 9636 ft | 242 kts | 356° |
| 2026-05-08 01:08 | 32.98834 | -97.16517 | 9481 ft | 247 kts | 356° |
| 2026-05-08 01:08 | 33.00571 | -97.16499 | 9282 ft | 253 kts | 357° |
| 2026-05-08 01:08 | 33.02336 | -97.16479 | 9063 ft | 253 kts | 357° |
| 2026-05-08 01:09 | 33.04060 | -97.16459 | 8828 ft | 250 kts | 358° |
| 2026-05-08 01:09 | 33.05791 | -97.16438 | 8631 ft | 247 kts | 358° |
| 2026-05-08 01:09 | 33.07499 | -97.16418 | 8422 ft | 244 kts | 358° |
| 2026-05-08 01:09 | 33.09176 | -97.16552 | 8186 ft | 239 kts | 342° |
| 2026-05-08 01:10 | 33.10633 | -97.17402 | 8013 ft | 231 kts | 321° |
| 2026-05-08 01:10 | 33.11903 | -97.18606 | 7533 ft | 240 kts | 318° |
| 2026-05-08 01:10 | 33.13186 | -97.19897 | 7249 ft | 241 kts | 318° |
| 2026-05-08 01:10 | 33.14452 | -97.21194 | 7072 ft | 236 kts | 318° |
| 2026-05-08 01:11 | 33.15654 | -97.22440 | 6986 ft | 228 kts | 316° |
| 2026-05-08 01:11 | 33.16550 | -97.23941 | 6969 ft | 218 kts | 290° |
| 2026-05-08 01:11 | 33.16792 | -97.25681 | 6762 ft | 212 kts | 264° |
| 2026-05-08 01:11 | 33.16345 | -97.27309 | 6526 ft | 205 kts | 239° |
| 2026-05-08 01:12 | 33.15578 | -97.28717 | 6277 ft | 200 kts | 237° |
| 2026-05-08 01:12 | 33.14750 | -97.30035 | 5996 ft | 199 kts | 219° |
| 2026-05-08 01:12 | 33.13472 | -97.30519 | 5724 ft | 197 kts | 172° |
| 2026-05-08 01:12 | 33.12270 | -97.29830 | 5523 ft | 190 kts | 144° |
| 2026-05-08 01:13 | 33.11198 | -97.28973 | 5298 ft | 185 kts | 147° |
| 2026-05-08 01:13 | 33.10133 | -97.28097 | 5059 ft | 188 kts | 141° |
| 2026-05-08 01:13 | 33.09130 | -97.27104 | 4815 ft | 186 kts | 139° |
| 2026-05-08 01:13 | 33.08161 | -97.26106 | 4587 ft | 181 kts | 139° |
| 2026-05-08 01:14 | 33.07236 | -97.25146 | 4316 ft | 172 kts | 139° |
| 2026-05-08 01:14 | 33.06346 | -97.24224 | 4049 ft | 167 kts | 139° |
| 2026-05-08 01:14 | 33.05478 | -97.23316 | 3803 ft | 167 kts | 138° |
| 2026-05-08 01:14 | 33.04628 | -97.22430 | 3576 ft | 159 kts | 138° |
| 2026-05-08 01:15 | 33.03815 | -97.21589 | 3316 ft | 155 kts | 138° |
| 2026-05-08 01:15 | 33.03005 | -97.20752 | 3100 ft | 155 kts | 138° |
| 2026-05-08 01:15 | 33.02191 | -97.19915 | 3053 ft | 155 kts | 138° |
| 2026-05-08 01:15 | 33.01379 | -97.19075 | 3022 ft | 153 kts | 138° |
| 2026-05-08 01:16 | 33.00575 | -97.18245 | 3010 ft | 154 kts | 138° |
| 2026-05-08 01:16 | 32.99755 | -97.17400 | 2862 ft | 157 kts | 138° |
| 2026-05-08 01:16 | 32.98943 | -97.16560 | 2668 ft | 153 kts | 138° |
| 2026-05-08 01:16 | 32.98147 | -97.15738 | 2461 ft | 150 kts | 138° |
| 2026-05-08 01:17 | 32.97369 | -97.14935 | 2270 ft | 150 kts | 139° |
| 2026-05-08 01:17 | 32.96585 | -97.14126 | 2071 ft | 147 kts | 139° |
| 2026-05-08 01:17 | 32.95827 | -97.13342 | 1878 ft | 143 kts | 140° |
| 2026-05-08 01:17 | 32.95077 | -97.12568 | 1693 ft | 143 kts | 141° |
| 2026-05-08 01:18 | 32.94329 | -97.11796 | 1471 ft | 145 kts | 140° |
| 2026-05-08 01:18 | 32.93573 | -97.10994 | 1281 ft | 149 kts | 140° |
| 2026-05-08 01:18 | 32.92786 | -97.10190 | 1120 ft | 150 kts | 142° |
| 2026-05-08 01:18 | 32.91985 | -97.09377 | 932 ft | 153 kts | 139° |
| 2026-05-08 01:19 | 32.91194 | -97.08550 | 700 ft | 153 kts | 139° |
| 2026-05-08 01:19 | 32.90408 | -97.07745 | 610 ft | 141 kts | 139° |
| 2026-05-08 01:19 | 32.89755 | -97.07073 | 595 ft | 95 kts | 140° |
| 2026-05-08 01:19 | 32.89446 | -97.06759 | 589 ft | 45 kts | 139° |
| 2026-05-08 01:20 | 32.89223 | -97.06529 | 586 ft | 38 kts | 139° |
| 2026-05-08 01:20 | 32.89111 | -97.06387 | 587 ft | 13 kts | 98° |
| 2026-05-08 01:20 | 32.89158 | -97.06301 | 588 ft | 10 kts | 50° |
| 2026-05-08 01:20 | 32.89171 | -97.06281 | 589 ft | 0 kts | 51° |
| 2026-05-08 01:21 | 32.89165 | -97.06210 | 590 ft | 12 kts | 137° |
| 2026-05-08 01:21 | 32.89101 | -97.06140 | 590 ft | 12 kts | 139° |
| 2026-05-08 01:21 | 32.89055 | -97.06095 | 590 ft | 0 kts | 141° |
| 2026-05-08 01:22 | 32.89024 | -97.06065 | 592 ft | 14 kts | 139° |
| 2026-05-08 01:22 | 32.88945 | -97.05982 | 588 ft | 17 kts | 139° |
| 2026-05-08 01:22 | 32.88857 | -97.05889 | 595 ft | 17 kts | 138° |
| 2026-05-08 01:22 | 32.88775 | -97.05804 | 597 ft | 14 kts | 140° |
| 2026-05-08 01:23 | 32.88701 | -97.05730 | 596 ft | 14 kts | 138° |
| 2026-05-08 01:23 | 32.88641 | -97.05640 | 594 ft | 15 kts | 124° |
| 2026-05-08 01:23 | 32.88588 | -97.05541 | 595 ft | 14 kts | 118° |
| 2026-05-08 01:23 | 32.88549 | -97.05438 | 595 ft | 13 kts | 111° |
| 2026-05-08 01:24 | 32.88524 | -97.05325 | 592 ft | 15 kts | 99° |
| 2026-05-08 01:24 | 32.88511 | -97.05186 | 588 ft | 18 kts | 92° |
| 2026-05-08 01:24 | 32.88510 | -97.05045 | 588 ft | 15 kts | 89° |
| 2026-05-08 01:24 | 32.88511 | -97.04927 | 589 ft | 14 kts | 89° |
| 2026-05-08 01:25 | 32.88513 | -97.04815 | 587 ft | 14 kts | 89° |
| 2026-05-08 01:25 | 32.88511 | -97.04699 | 586 ft | 14 kts | 93° |
| 2026-05-08 01:25 | 32.88527 | -97.04611 | 587 ft | 8 kts | 29° |
| 2026-05-08 01:25 | 32.88583 | -97.04604 | 588 ft | 8 kts | 3° |
| 2026-05-08 01:26 | 32.88609 | -97.04556 | 590 ft | 8 kts | 92° |
| 2026-05-08 01:26 | 32.88606 | -97.04471 | 591 ft | 12 kts | 92° |
| 2026-05-08 01:26 | 32.88606 | -97.04370 | 591 ft | 12 kts | 90° |
| 2026-05-08 01:26 | 32.88605 | -97.04270 | 593 ft | 13 kts | 89° |
| 2026-05-08 01:27 | 32.88606 | -97.04156 | 581 ft | 22 kts | 91° |
| 2026-05-08 01:27 | 32.88601 | -97.03957 | 572 ft | 28 kts | 89° |
| 2026-05-08 01:27 | 32.88603 | -97.03746 | 580 ft | 22 kts | 89° |
| 2026-05-08 01:27 | 32.88605 | -97.03578 | 575 ft | 12 kts | 78° |
| 2026-05-08 01:28 | 32.88669 | -97.03563 | 576 ft | 10 kts | 343° |
| 2026-05-08 01:28 | 32.88735 | -97.03593 | 573 ft | 9 kts | 348° |
| 2026-05-08 01:28 | 32.88790 | -97.03559 | 577 ft | 10 kts | 38° |
| 2026-05-08 01:28 | 32.88834 | -97.03520 | 571 ft | 1 kts | 29° |
| 2026-05-08 01:29 | 32.88835 | -97.03519 | 571 ft | 0 kts | 28° |
| 2026-05-08 01:30 | 32.88852 | -97.03500 | 571 ft | 5 kts | 69° |
| 2026-05-08 01:30 | 32.88845 | -97.03480 | 570 ft | 6 kts | 115° |
| 2026-05-08 01:30 | 32.88841 | -97.03460 | 570 ft | 3 kts | 103° |
| 2026-05-08 01:30 | 32.88839 | -97.03452 | 569 ft | 0 kts | 103° |